x

Shumagin Islands - 85nm South Of Sand Point, Ak (46075) Wave Buoy

1:50am - Fri 30th Jan 2015 All times are UTC.

  • Sig Wave height 8.9ft
  • Peak Period 7s
  • Average Period 5s
  • Wind
    27mph, 31mph gusts
  • Sea Temp 42°f
  • Air Temp 40°f
  • Sea Pressure 1015.4mb

More Historic Weather Station data

Upgrade to MSW Pro to gain access to the past 30 days of data for over 8000 Wavebouys and Weather Stations around the globe.

Join Pro

Comparision Forecast

View Surf forecast
   
Fri 01/30 1:50am 9ft 7s 5s 27 31 mph 1015.4mb 42f 40f
12:50am 8ft 8s 5s 20 27 mph 1015mb 42f 40f
Thu 01/29 11:50pm 7.5ft 7s 6s 18 20 mph 1014.6mb 42f 40f
10:50pm 7.5ft 7s 6s 13 18 mph 1014.4mb 43f 40f
9:50pm 7.5ft 9s  -  20 25 mph 1014mb 43f 41f
8:50pm 8ft 8s 6s 13 16 mph 1013.7mb 43f 42f
7:50pm 8ft 7s 6s 13 16 mph 1012.8mb 43f 42f
5:50pm 9.5ft 8s 6s 13 18 mph 1010.4mb 43f 40f
4:50pm 10.5ft 7s 6s 27 31 mph 1010mb 43f 38f
3:50pm 9.5ft 8s 6s 27 31 mph 1009.4mb 43f 39f
2:50pm 10.5ft 8s 6s 16 18 mph 1008.8mb 43f 40f
1:50pm 10ft 8s 6s 25 29 mph 1008.1mb 43f 40f
12:50pm 11ft 7s 5s 29 36 mph 1007.3mb 43f 40f
11:50am 11ft 7s 6s 31 38 mph 1006.9mb 43f 40f
10:50am 10ft 9s 5s 34 40 mph 1006.3mb 44f 40f
9:50am 9.5ft 10s 5s 36 43 mph 1006.1mb 44f 40f
8:50am 9ft 6s 5s 34 43 mph 1005.5mb 44f 40f
7:50am 9ft 9s 5s 34 40 mph 1005.1mb 44f 40f
6:50am 10ft 9s 5s 34 40 mph 1004.6mb 44f 40f
5:50am 10.5ft 9s 5s 34 40 mph 1004.1mb 44f 41f
4:50am 10ft 9s 5s 34 40 mph 1003.8mb 44f 41f
3:50am 10ft 8s 5s 34 40 mph 1003.3mb 44f 40f
2:50am 9ft 9s 5s 34 40 mph 1003mb 43f 40f
1:50am 9.5ft 9s 5s 31 38 mph 1002.9mb 43f 41f
12:50am 10ft 10s 6s 31 36 mph 1002.6mb 43f 42f
Wed 01/28 11:50pm 9ft 9s 5s 34 40 mph 1002.3mb 43f 41f
10:50pm 8.5ft 9s 6s 29 34 mph 1002.3mb 44f 43f
9:50pm 9ft 10s 6s 27 31 mph 1001.9mb 44f 43f
8:50pm 8ft 9s 6s 25 29 mph 1001.8mb 44f 43f
7:50pm 8.5ft 9s 6s 22 25 mph 1001.4mb 44f 42f
6:50pm 9ft 9s 6s 27 31 mph 1000.4mb 44f 41f
5:50pm 9ft 9s 6s 27 31 mph 999.7mb 43f 42f
4:50pm 10ft 10s 6s 25 31 mph 999.1mb 43f 41f
3:50pm 10ft 10s 6s 22 27 mph 998.3mb 43f 41f
2:50pm 10ft 10s 6s 25 29 mph 997.4mb 43f 41f
1:50pm 11ft 10s 6s 27 29 mph 996.6mb 43f 41f
12:50pm 11.5ft 11s 6s 29 31 mph 995.2mb 43f 40f
11:50am 13.5ft 11s 7s 29 36 mph 993.7mb 43f 40f
10:50am 13ft 11s 6s 31 38 mph 992.1mb 43f 41f
9:50am 12.5ft 12s 6s 31 38 mph 990.8mb 43f 42f
8:50am 15ft 11s 7s 34 40 mph 989.3mb 44f 42f
7:50am 16ft 11s 7s 38 45 mph 988.4mb 43f 41f
6:50am 16.5ft 11s 7s 38 49 mph 988mb 43f 41f
5:50am 15.5ft 11s 7s 38 47 mph 988.3mb 44f 41f
4:50am 16ft 11s 7s 40 51 mph 988.8mb 44f 41f
3:50am 15ft 7s 6s 38 49 mph 989.4mb 44f 40f
2:50am 15ft 10s 7s 36 45 mph 990mb 43f 40f
1:50am 14ft 9s 6s 38 47 mph 990.2mb 43f 41f
12:50am 12ft 9s 6s 34 40 mph 990.8mb 43f 40f
Tue 01/27 11:50pm 11.5ft 8s 6s 31 43 mph 991.5mb 43f 40f
10:50pm 12ft 9s 6s 31 36 mph 992mb 43f 42f
9:50pm 10.5ft 8s 6s 29 38 mph 992.8mb 43f 42f
8:50pm 10.5ft 15s 6s 31 36 mph 993.3mb 43f 42f
7:50pm 10ft 9s 6s 29 36 mph 993.7mb 43f 41f
6:50pm 11ft 8s 6s 29 36 mph 993.5mb 43f 40f
5:50pm 10ft 8s 6s 27 34 mph 993mb 43f 41f
4:50pm 10ft 8s 6s 29 34 mph 993.2mb 43f 41f
3:50pm 9.5ft 15s 6s 29 36 mph 993.3mb 43f 40f
2:50pm 10ft 6s 5s 27 34 mph 993.5mb 43f 41f
1:50pm 9ft 7s 5s 25 29 mph 993.8mb 43f 41f
12:50pm 10ft 15s 6s 27 34 mph 994.1mb 43f 40f
11:50am 9.5ft 16s 6s 25 31 mph 994.4mb 43f 39f
10:50am 8ft 16s 5s 29 34 mph 994.5mb 43f 40f
9:50am 8ft 16s 5s 27 31 mph 994.5mb 43f 41f
8:50am 8ft 16s 6s 25 31 mph 994.7mb 43f 42f
7:50am 8ft 17s 6s 25 29 mph 995mb 43f 41f
6:50am 7ft 8s 6s 22 27 mph 995.1mb 43f 41f
5:50am 7ft 8s 6s 20 25 mph 995.4mb 43f 41f
4:50am 7ft 8s 6s 18 22 mph 995.6mb 43f 41f
3:50am 7ft 8s 6s 18 22 mph 995.9mb 43f 40f
2:50am 8ft 9s 7s 16 20 mph 996.2mb 43f 40f
1:50am 7ft 8s 6s 16 18 mph 996.6mb 43f 39f
12:50am 7.5ft 9s 6s 16 20 mph 996.7mb 43f 41f
Mon 01/26 11:50pm 7.5ft 8s 6s 20 25 mph 997.2mb 43f 40f
10:50pm 8.5ft 8s 6s 16 18 mph 997.8mb 44f 42f
9:50pm 8ft 8s 6s 16 20 mph 998.1mb 43f 41f
8:50pm 7.5ft 8s 6s 18 22 mph 998.1mb 43f 42f
7:50pm 8.5ft 8s 6s 18 20 mph 997.8mb 43f 42f
6:50pm 8ft 8s 6s 18 20 mph 997.5mb 43f 41f
5:50pm 9ft 8s 6s 18 22 mph 997.1mb 43f 41f
4:50pm 9.5ft 8s 6s 18 22 mph 996.7mb 43f 41f
3:50pm 9ft 9s 6s 18 22 mph 996.5mb 44f 42f
2:50pm 9.5ft 8s 6s 20 22 mph 996.5mb 43f 41f
1:50pm 9.5ft 8s 6s 18 20 mph 996.5mb 43f 40f
12:50pm 9.5ft 8s 6s 22 27 mph 996.4mb 43f 41f
11:50am 8.5ft 7s 5s 27 34 mph 996.6mb 43f 40f
10:50am 8.5ft 7s 5s 27 34 mph 997.1mb 42f 39f
9:50am 8ft 8s 5s 29 36 mph 998mb 42f 38f
8:50am 8.5ft 8s 5s 27 31 mph 998.8mb 43f 38f
7:50am 9.5ft 7s 5s 25 29 mph 999.6mb 42f 38f
6:50am 9ft 7s 5s 31 38 mph 1000.1mb 43f 38f
5:50am 8.5ft 6s 5s 31 38 mph 1000.7mb 43f 37f
4:50am 7ft 6s 4s 31 36 mph 1001.3mb 43f 37f
3:50am 5ft 5s 4s 29 34 mph 1002.2mb 43f 36f